createdAt,value
2019-03-08T00:00:59.217Z,8.80
2019-03-08T00:03:28.449Z,8.80
2019-03-08T00:05:57.769Z,8.80
2019-03-08T00:08:26.967Z,8.80
2019-03-08T00:10:56.465Z,8.80
2019-03-08T00:13:25.713Z,8.80
2019-03-08T00:15:54.943Z,8.70
2019-03-08T00:18:24.159Z,8.60
2019-03-08T00:20:53.481Z,8.60
2019-03-08T00:23:22.774Z,8.60
2019-03-08T00:25:52.498Z,8.50
2019-03-08T00:28:21.749Z,8.40
2019-03-08T00:30:50.956Z,8.30
2019-03-08T00:33:20.179Z,8.20
2019-03-08T00:35:49.447Z,8.10
2019-03-08T00:38:18.646Z,8.10
2019-03-08T00:40:48.149Z,8.10
2019-03-08T00:43:17.317Z,8.10
2019-03-08T00:45:46.731Z,8.10
2019-03-08T00:48:15.937Z,8.20
2019-03-08T00:50:45.227Z,8.20
2019-03-08T00:53:15.769Z,8.20
2019-03-08T00:55:45.069Z,8.20
2019-03-08T00:58:14.386Z,8.20
2019-03-08T01:00:43.675Z,8.10
2019-03-08T01:03:12.997Z,8.00
2019-03-08T01:05:42.231Z,8.00
2019-03-08T01:08:11.553Z,8.00
2019-03-08T01:10:40.842Z,8.00
2019-03-08T01:13:10.129Z,8.10
2019-03-08T01:15:39.398Z,8.10
2019-03-08T01:18:08.612Z,8.10
2019-03-08T01:20:37.931Z,8.10
2019-03-08T01:23:07.061Z,8.10
2019-03-08T01:25:36.361Z,8.10
2019-03-08T01:28:10.379Z,8.10
2019-03-08T01:30:40.349Z,8.20
2019-03-08T01:33:09.568Z,8.20
2019-03-08T01:35:39.109Z,8.20
2019-03-08T01:38:08.329Z,8.20
2019-03-08T01:40:37.566Z,8.30
2019-03-08T01:43:07.106Z,8.30
2019-03-08T01:45:36.376Z,8.30
2019-03-08T01:48:06.025Z,8.30
2019-03-08T01:50:35.267Z,8.30
2019-03-08T01:53:04.487Z,8.40
2019-03-08T01:55:33.689Z,8.40
2019-03-08T01:58:02.923Z,8.40
2019-03-08T02:00:32.255Z,8.40
2019-03-08T02:03:02.041Z,8.40
2019-03-08T02:05:31.260Z,8.40
2019-03-08T02:08:00.466Z,8.30
2019-03-08T02:10:30.237Z,8.30
2019-03-08T02:12:59.535Z,8.30
2019-03-08T02:15:28.757Z,8.30
2019-03-08T02:17:58.165Z,8.30
2019-03-08T02:20:27.403Z,8.30
2019-03-08T02:22:56.619Z,8.30
2019-03-08T02:25:25.826Z,8.30
2019-03-08T02:27:55.134Z,8.30
2019-03-08T02:30:24.658Z,8.30
2019-03-08T02:32:53.860Z,8.30
2019-03-08T02:35:23.511Z,8.20
2019-03-08T02:37:52.801Z,8.20
2019-03-08T02:40:28.345Z,8.10
2019-03-08T02:42:57.747Z,8.10
2019-03-08T02:45:27.013Z,8.10
2019-03-08T02:47:56.270Z,8.10
2019-03-08T02:50:25.485Z,8.10
2019-03-08T02:52:54.630Z,8.10
2019-03-08T02:55:23.993Z,8.10
2019-03-08T02:57:53.402Z,8.10
2019-03-08T03:00:22.908Z,8.10
2019-03-08T03:02:52.355Z,8.10
2019-03-08T03:05:21.642Z,8.00
2019-03-08T03:07:50.772Z,8.00
2019-03-08T03:10:20.319Z,8.00
2019-03-08T03:12:49.531Z,7.90
2019-03-08T03:15:18.745Z,7.90
2019-03-08T03:17:47.920Z,8.00
2019-03-08T03:20:17.549Z,7.90
2019-03-08T03:22:46.849Z,7.90
2019-03-08T03:25:16.816Z,7.90
2019-03-08T03:27:46.021Z,7.90
2019-03-08T03:30:15.987Z,7.90
2019-03-08T03:32:48.226Z,7.80
2019-03-08T03:35:17.449Z,7.70
2019-03-08T03:37:47.196Z,7.70
2019-03-08T03:40:16.695Z,7.60
2019-03-08T03:42:45.906Z,7.60
2019-03-08T03:45:16.150Z,7.50
2019-03-08T03:47:45.383Z,7.50
2019-03-08T03:50:14.706Z,7.50
2019-03-08T03:52:43.940Z,7.40
2019-03-08T03:55:13.925Z,7.40
2019-03-08T03:57:43.153Z,7.40
2019-03-08T04:00:13.966Z,7.40
2019-03-08T04:02:44.533Z,7.40
2019-03-08T04:05:14.147Z,7.40
2019-03-08T04:07:43.360Z,7.40
2019-03-08T04:10:13.198Z,7.40
2019-03-08T04:12:42.409Z,7.40
2019-03-08T04:15:13.667Z,7.40
2019-03-08T04:17:43.345Z,7.40
2019-03-08T04:20:13.799Z,7.30
2019-03-08T04:22:43.009Z,7.20
2019-03-08T04:25:12.459Z,7.10
2019-03-08T04:27:41.928Z,7.10
2019-03-08T04:30:13.593Z,7.00
2019-03-08T04:32:42.845Z,7.00
2019-03-08T04:35:12.138Z,7.00
2019-03-08T04:37:41.519Z,7.00
2019-03-08T04:40:11.604Z,6.90
2019-03-08T04:42:40.804Z,6.90
2019-03-08T04:45:10.657Z,6.90
2019-03-08T04:47:39.832Z,6.90
2019-03-08T04:50:10.282Z,6.80
2019-03-08T04:52:39.485Z,6.80
2019-03-08T04:55:11.075Z,6.80
2019-03-08T04:57:40.277Z,6.80
2019-03-08T05:00:10.853Z,6.80
2019-03-08T05:02:40.126Z,6.80
2019-03-08T05:05:09.335Z,6.80
2019-03-08T05:07:38.555Z,6.80
2019-03-08T05:10:09.942Z,6.80
2019-03-08T05:12:39.371Z,6.80
2019-03-08T05:15:08.873Z,6.80
2019-03-08T05:17:38.158Z,6.80
2019-03-08T05:20:08.257Z,6.80
2019-03-08T05:22:37.468Z,6.80
2019-03-08T05:25:06.907Z,6.80
2019-03-08T05:27:36.495Z,6.80
2019-03-08T05:30:06.565Z,6.90
2019-03-08T05:32:35.809Z,6.90
2019-03-08T05:35:05.806Z,6.90
2019-03-08T05:37:35.007Z,6.90
2019-03-08T05:40:04.546Z,6.90
2019-03-08T05:42:33.754Z,6.90
2019-03-08T05:45:03.073Z,6.90
2019-03-08T05:47:32.308Z,6.80
2019-03-08T05:50:01.507Z,6.80
2019-03-08T05:52:30.798Z,6.80
2019-03-08T05:55:00.350Z,6.80
2019-03-08T05:57:29.548Z,6.80
2019-03-08T05:59:58.768Z,6.80
2019-03-08T06:02:28.005Z,6.70
2019-03-08T06:04:57.214Z,6.70
2019-03-08T06:07:26.421Z,6.70
2019-03-08T06:09:56.070Z,6.70
2019-03-08T06:12:25.279Z,6.80
2019-03-08T06:14:54.496Z,6.80
2019-03-08T06:17:23.734Z,6.70
2019-03-08T06:19:53.025Z,6.70
2019-03-08T06:22:22.240Z,6.70
2019-03-08T06:24:51.599Z,6.70
2019-03-08T06:27:20.758Z,6.70
2019-03-08T06:29:49.973Z,6.70
2019-03-08T06:32:19.220Z,6.70
2019-03-08T06:34:48.439Z,6.80
2019-03-08T06:37:17.667Z,6.70
2019-03-08T06:39:47.101Z,6.70
2019-03-08T06:42:16.317Z,6.80
2019-03-08T06:44:45.609Z,6.70
2019-03-08T06:47:15.263Z,6.80
2019-03-08T06:49:44.553Z,6.80
2019-03-08T06:52:13.763Z,6.90
2019-03-08T06:54:43.086Z,6.90
2019-03-08T06:57:12.223Z,6.90
2019-03-08T06:59:48.851Z,7.00
2019-03-08T07:02:18.785Z,7.00
2019-03-08T07:04:48.009Z,7.00
2019-03-08T07:07:17.434Z,7.00
2019-03-08T07:09:46.724Z,7.10
2019-03-08T07:12:15.934Z,7.10
2019-03-08T07:14:46.949Z,7.10
2019-03-08T07:17:16.240Z,7.10
2019-03-08T07:20:08.792Z,7.20
2019-03-08T07:22:54.966Z,7.20
2019-03-08T07:25:50.937Z,7.20
2019-03-08T07:28:30.563Z,7.20
2019-03-08T07:31:20.195Z,7.20
2019-03-08T07:33:59.795Z,7.20
2019-03-08T07:36:51.102Z,7.20
2019-03-08T07:39:38.685Z,7.30
2019-03-08T07:42:36.024Z,7.30
2019-03-08T07:45:34.023Z,7.40
2019-03-08T07:48:10.379Z,7.50
2019-03-08T07:50:46.961Z,7.50
2019-03-08T07:53:27.498Z,7.60
2019-03-08T07:56:21.621Z,7.70
2019-03-08T07:59:15.697Z,7.70
2019-03-08T08:02:16.229Z,7.70
2019-03-08T08:05:10.350Z,7.70
2019-03-08T08:07:47.739Z,7.70
2019-03-08T08:10:51.063Z,7.60
2019-03-08T08:13:30.791Z,7.50
2019-03-08T08:16:12.006Z,7.50
2019-03-08T08:18:55.294Z,7.50
2019-03-08T08:21:42.442Z,7.50
2019-03-08T08:24:28.826Z,7.60
2019-03-08T08:27:15.979Z,7.60
2019-03-08T08:30:03.041Z,7.70
2019-03-08T08:32:51.645Z,7.80
2019-03-08T08:35:39.893Z,7.80
2019-03-08T08:38:25.203Z,7.90
2019-03-08T08:41:13.745Z,8.10
2019-03-08T08:44:08.019Z,8.30
2019-03-08T08:46:51.711Z,8.30
2019-03-08T08:49:30.165Z,8.50
2019-03-08T08:52:12.435Z,8.70
2019-03-08T08:55:04.156Z,8.60
2019-03-08T08:57:55.533Z,8.60
2019-03-08T09:00:50.133Z,8.60
2019-03-08T09:03:38.436Z,8.50
2019-03-08T09:06:27.019Z,8.60
2019-03-08T09:09:05.412Z,8.50
2019-03-08T09:11:52.500Z,8.50
2019-03-08T09:14:27.749Z,8.50
2019-03-08T09:17:28.334Z,8.60
2019-03-08T09:20:13.781Z,8.60
2019-03-08T09:23:05.107Z,8.60
2019-03-08T09:26:05.761Z,8.40
2019-03-08T09:28:54.042Z,8.30
2019-03-08T09:31:29.720Z,8.30
2019-03-08T09:34:33.086Z,8.30
2019-03-08T09:37:21.329Z,8.40
2019-03-08T09:40:18.441Z,8.70
2019-03-08T09:43:09.684Z,9.00
2019-03-08T09:46:06.917Z,9.10
2019-03-08T09:48:55.166Z,8.90
2019-03-08T09:51:41.528Z,8.80
2019-03-08T09:54:18.517Z,8.70
2019-03-08T09:57:00.456Z,8.80
2019-03-08T09:59:47.369Z,8.80
2019-03-08T10:02:45.949Z,8.60
2019-03-08T10:05:46.199Z,8.50
2019-03-08T10:08:27.967Z,8.40
2019-03-08T10:11:22.227Z,8.40
2019-03-08T10:14:02.044Z,8.70
2019-03-08T10:16:36.505Z,8.90
2019-03-08T10:19:21.919Z,9.00
2019-03-08T10:22:19.416Z,9.10
2019-03-08T10:25:16.860Z,9.30
2019-03-08T10:27:56.173Z,9.20
2019-03-08T10:30:52.507Z,9.00
2019-03-08T10:33:46.178Z,8.90
2019-03-08T10:36:24.491Z,8.90
2019-03-08T10:39:09.531Z,9.00
2019-03-08T10:41:56.673Z,9.00
2019-03-08T10:44:48.345Z,9.30
2019-03-08T10:47:37.788Z,9.50
2019-03-08T10:50:30.297Z,9.50
2019-03-08T10:53:18.574Z,9.30
2019-03-08T10:56:22.323Z,9.20
2019-03-08T10:59:08.095Z,9.20
2019-03-08T11:02:02.392Z,9.20
2019-03-08T11:04:56.496Z,9.30
2019-03-08T11:07:34.005Z,9.50
2019-03-08T11:10:28.290Z,9.60
2019-03-08T11:13:17.044Z,9.90
2019-03-08T11:16:08.095Z,10.10
2019-03-08T11:18:52.106Z,10.40
2019-03-08T11:21:40.387Z,10.40
2019-03-08T11:24:27.723Z,10.20
2019-03-08T11:27:14.906Z,10.30
2019-03-08T11:30:05.957Z,10.30
2019-03-08T11:32:40.162Z,10.30
2019-03-08T11:35:27.821Z,10.50
2019-03-08T11:38:08.781Z,10.60
2019-03-08T11:40:55.390Z,10.80
2019-03-08T11:43:49.729Z,11.00
2019-03-08T11:46:32.451Z,10.90
2019-03-08T11:49:27.385Z,11.10
2019-03-08T11:52:27.965Z,11.20
2019-03-08T11:55:28.079Z,11.50
2019-03-08T11:58:22.317Z,11.60
2019-03-08T12:00:59.110Z,11.70
2019-03-08T12:03:46.319Z,11.50
2019-03-08T12:06:34.935Z,11.50
2019-03-08T12:09:11.216Z,11.00
2019-03-08T12:11:58.444Z,10.90
2019-03-08T12:14:49.738Z,10.90
2019-03-08T12:17:50.017Z,10.90
2019-03-08T12:20:50.543Z,10.90
2019-03-08T12:23:37.438Z,11.20
2019-03-08T12:26:24.718Z,11.00
2019-03-08T12:29:22.362Z,11.10
2019-03-08T12:31:58.193Z,11.10
2019-03-08T12:34:38.561Z,11.20
2019-03-08T12:37:25.624Z,11.20
2019-03-08T12:40:00.354Z,11.30
2019-03-08T12:42:51.296Z,11.40
2019-03-08T12:45:38.117Z,11.50
2019-03-08T12:48:23.442Z,11.50
2019-03-08T12:50:56.690Z,11.50
2019-03-08T12:53:43.757Z,11.60
2019-03-08T12:56:18.858Z,11.70
2019-03-08T12:58:54.785Z,11.60
2019-03-08T13:01:42.269Z,11.40
2019-03-08T13:04:19.190Z,11.30
2019-03-08T13:07:19.586Z,11.20
2019-03-08T13:09:48.809Z,11.10
2019-03-08T13:12:18.464Z,11.10
2019-03-08T13:14:47.715Z,11.10
2019-03-08T13:17:17.278Z,11.30
2019-03-08T13:19:46.518Z,11.40
2019-03-08T13:22:16.106Z,11.40
2019-03-08T13:24:45.348Z,11.50
2019-03-08T13:27:14.516Z,12.00
2019-03-08T13:29:43.777Z,12.40
2019-03-08T13:32:13.478Z,12.40
2019-03-08T13:34:42.688Z,12.60
2019-03-08T13:37:11.929Z,12.70
2019-03-08T13:39:41.066Z,12.60
2019-03-08T13:42:10.365Z,12.50
2019-03-08T13:44:39.605Z,12.40
2019-03-08T13:47:08.909Z,12.50
2019-03-08T13:49:38.129Z,12.50
2019-03-08T13:52:07.379Z,12.50
2019-03-08T13:54:36.594Z,12.80
2019-03-08T13:57:05.858Z,13.00
2019-03-08T13:59:35.097Z,13.00
2019-03-08T14:02:04.428Z,12.90
2019-03-08T14:04:33.714Z,12.80
2019-03-08T14:07:02.966Z,12.70
2019-03-08T14:09:32.187Z,12.70
2019-03-08T14:12:01.426Z,12.60
2019-03-08T14:14:30.887Z,12.60
2019-03-08T14:17:00.146Z,12.60
2019-03-08T14:19:29.371Z,12.70
2019-03-08T14:21:58.615Z,12.80
2019-03-08T14:24:27.847Z,12.80
2019-03-08T14:26:57.085Z,12.90
2019-03-08T14:29:26.389Z,13.00
2019-03-08T14:31:59.042Z,12.90
2019-03-08T14:34:28.334Z,12.70
2019-03-08T14:36:57.598Z,12.80
2019-03-08T14:39:26.912Z,12.90
2019-03-08T14:42:05.215Z,13.00
2019-03-08T14:45:11.462Z,12.80
2019-03-08T14:47:43.336Z,12.90
2019-03-08T14:50:12.969Z,12.90
2019-03-08T14:52:42.189Z,12.90
2019-03-08T14:55:14.467Z,12.70
2019-03-08T14:57:43.682Z,12.80
2019-03-08T15:00:19.069Z,12.80
2019-03-08T15:02:48.674Z,12.90
2019-03-08T15:05:19.228Z,13.50
2019-03-08T15:07:49.047Z,13.70
2019-03-08T15:10:19.342Z,13.60
2019-03-08T15:12:49.560Z,13.60
2019-03-08T15:15:18.939Z,13.50
2019-03-08T15:17:49.738Z,13.40
2019-03-08T15:20:19.094Z,13.10
2019-03-08T15:22:48.643Z,12.70
2019-03-08T15:25:17.967Z,12.50
2019-03-08T15:27:47.124Z,12.40
2019-03-08T15:30:17.153Z,12.20
2019-03-08T15:32:46.962Z,12.00
2019-03-08T15:35:16.900Z,11.90
2019-03-08T15:37:46.150Z,11.80
2019-03-08T15:40:17.232Z,11.80
2019-03-08T15:42:46.452Z,11.70
2019-03-08T15:45:16.529Z,11.60
2019-03-08T15:47:46.066Z,11.50
2019-03-08T15:50:16.355Z,11.30
2019-03-08T15:52:46.396Z,11.20
2019-03-08T15:55:15.612Z,11.00
2019-03-08T15:57:44.771Z,10.90
2019-03-08T16:00:16.450Z,10.90
2019-03-08T16:02:46.910Z,10.80
2019-03-08T16:05:16.690Z,10.80
2019-03-08T16:07:45.865Z,10.80
2019-03-08T16:10:16.373Z,10.70
2019-03-08T16:12:45.799Z,10.60
2019-03-08T16:15:15.581Z,10.60
2019-03-08T16:17:44.821Z,10.60
2019-03-08T16:20:14.930Z,10.50
2019-03-08T16:22:44.206Z,10.50
2019-03-08T16:25:14.454Z,10.50
2019-03-08T16:27:43.676Z,10.40
2019-03-08T16:30:17.569Z,10.50
2019-03-08T16:33:03.749Z,10.50
2019-03-08T16:35:41.132Z,10.50
2019-03-08T16:38:29.454Z,10.50
2019-03-08T16:41:08.538Z,10.50
2019-03-08T16:43:52.552Z,10.50
2019-03-08T16:46:49.559Z,10.50
2019-03-08T16:49:36.063Z,10.50
2019-03-08T16:52:30.121Z,10.40
2019-03-08T16:55:10.442Z,10.40
2019-03-08T16:57:50.838Z,10.40
2019-03-08T17:00:45.606Z,10.30
2019-03-08T17:03:34.111Z,10.30
2019-03-08T17:06:14.821Z,10.30
2019-03-08T17:08:59.848Z,10.30
2019-03-08T17:11:48.051Z,10.20
2019-03-08T17:14:35.512Z,10.20
2019-03-08T17:17:29.787Z,10.20
2019-03-08T17:20:10.460Z,10.20
2019-03-08T17:22:45.359Z,10.20
2019-03-08T17:25:39.468Z,10.20
2019-03-08T17:28:34.107Z,10.10
2019-03-08T17:31:25.630Z,10.10
2019-03-08T17:34:14.709Z,10.20
2019-03-08T17:36:55.314Z,10.10
2019-03-08T17:39:49.449Z,10.10
2019-03-08T17:42:40.617Z,10.10
2019-03-08T17:45:32.210Z,10.10
2019-03-08T17:48:19.449Z,10.00
2019-03-08T17:51:12.594Z,10.10
2019-03-08T17:54:10.819Z,10.10
2019-03-08T17:56:57.966Z,10.10
2019-03-08T18:00:01.591Z,10.00
2019-03-08T18:03:07.627Z,10.00
2019-03-08T18:05:57.574Z,10.00
2019-03-08T18:08:45.851Z,10.00
2019-03-08T18:11:34.117Z,9.90
2019-03-08T18:14:21.393Z,9.90
2019-03-08T18:17:05.713Z,9.90
2019-03-08T18:19:52.636Z,9.90
2019-03-08T18:22:34.969Z,9.90
2019-03-08T18:25:11.314Z,9.80
2019-03-08T18:28:00.202Z,9.90
2019-03-08T18:30:48.393Z,9.90
2019-03-08T18:33:35.396Z,9.90
2019-03-08T18:36:32.873Z,9.90
2019-03-08T18:39:14.002Z,9.80
2019-03-08T18:42:01.599Z,9.80
2019-03-08T18:44:49.811Z,9.80
2019-03-08T18:47:27.853Z,9.80
2019-03-08T18:50:34.350Z,9.80
2019-03-08T18:53:31.515Z,9.80
2019-03-08T18:56:25.582Z,9.80
2019-03-08T18:59:07.463Z,9.80
2019-03-08T19:02:08.093Z,9.80
2019-03-08T19:04:59.302Z,9.80
2019-03-08T19:07:53.382Z,9.70
2019-03-08T19:10:46.867Z,9.70
2019-03-08T19:13:37.216Z,9.80
2019-03-08T19:16:24.790Z,9.80
2019-03-08T19:19:11.725Z,9.70
2019-03-08T19:21:50.130Z,9.70
2019-03-08T19:24:53.474Z,9.60
2019-03-08T19:27:45.963Z,9.60
2019-03-08T19:30:37.338Z,9.60
2019-03-08T19:33:38.065Z,9.60
2019-03-08T19:36:29.099Z,9.60
2019-03-08T19:39:20.365Z,9.60
2019-03-08T19:42:03.605Z,9.60
2019-03-08T19:44:56.522Z,9.60
2019-03-08T19:48:03.076Z,9.60
2019-03-08T19:50:54.351Z,9.60
2019-03-08T19:53:41.213Z,9.60
2019-03-08T19:56:16.788Z,9.60
2019-03-08T19:58:59.230Z,9.60
2019-03-08T20:01:46.650Z,9.60
2019-03-08T20:04:29.274Z,9.50
2019-03-08T20:07:16.343Z,9.50
2019-03-08T20:09:58.482Z,9.50
2019-03-08T20:12:43.218Z,9.40
2019-03-08T20:15:42.962Z,9.40
2019-03-08T20:18:22.282Z,9.40
2019-03-08T20:20:58.984Z,9.40
2019-03-08T20:23:56.432Z,9.40
2019-03-08T20:26:44.632Z,9.40
2019-03-08T20:29:35.604Z,9.40
2019-03-08T20:32:29.876Z,9.40
2019-03-08T20:35:16.850Z,9.50
2019-03-08T20:38:15.484Z,9.50
2019-03-08T20:41:03.920Z,9.50
2019-03-08T20:43:50.546Z,9.50
2019-03-08T20:46:32.918Z,9.50
2019-03-08T20:49:02.158Z,9.50
2019-03-08T20:51:31.365Z,9.60
2019-03-08T20:54:00.523Z,9.60
2019-03-08T20:56:29.879Z,9.60
2019-03-08T20:58:59.082Z,9.60
2019-03-08T21:01:28.294Z,9.60
2019-03-08T21:03:57.526Z,9.60
2019-03-08T21:06:26.750Z,9.60
2019-03-08T21:08:55.988Z,9.50
2019-03-08T21:11:25.229Z,9.50
2019-03-08T21:13:54.943Z,9.40
2019-03-08T21:16:24.118Z,9.40
2019-03-08T21:18:53.371Z,9.40
2019-03-08T21:21:22.606Z,9.50
2019-03-08T21:23:51.811Z,9.50
2019-03-08T21:26:21.134Z,9.60
2019-03-08T21:28:50.285Z,9.60
2019-03-08T21:31:19.491Z,9.60
2019-03-08T21:33:48.755Z,9.60
2019-03-08T21:36:18.043Z,9.50
2019-03-08T21:38:50.319Z,9.40
2019-03-08T21:41:19.554Z,9.20
2019-03-08T21:43:48.753Z,9.10
2019-03-08T21:46:18.051Z,9.00
2019-03-08T21:48:47.305Z,9.00
2019-03-08T21:51:16.592Z,9.00
2019-03-08T21:53:45.740Z,9.00
2019-03-08T21:56:15.265Z,9.00
2019-03-08T21:58:44.475Z,9.00
2019-03-08T22:01:13.775Z,9.00
2019-03-08T22:03:44.660Z,9.00
2019-03-08T22:06:13.951Z,9.00
2019-03-08T22:08:54.011Z,9.00
2019-03-08T22:11:31.286Z,9.00
2019-03-08T22:14:00.949Z,9.10
2019-03-08T22:16:30.742Z,9.10
2019-03-08T22:18:59.969Z,9.10
2019-03-08T22:21:29.223Z,9.00
2019-03-08T22:23:58.426Z,9.00
2019-03-08T22:26:27.844Z,9.10
2019-03-08T22:28:57.092Z,9.00
2019-03-08T22:31:26.314Z,9.00
2019-03-08T22:33:55.528Z,9.00
2019-03-08T22:36:24.786Z,9.10
2019-03-08T22:38:54.016Z,9.10
2019-03-08T22:41:23.222Z,9.10
2019-03-08T22:43:52.379Z,9.10
2019-03-08T22:46:21.626Z,9.20
2019-03-08T22:48:50.847Z,9.20
2019-03-08T22:51:20.115Z,9.30
2019-03-08T22:53:49.263Z,9.20
2019-03-08T22:56:18.481Z,9.30
2019-03-08T22:58:47.654Z,9.40
2019-03-08T23:01:20.260Z,9.40
2019-03-08T23:03:49.574Z,9.40
2019-03-08T23:06:18.813Z,9.40
2019-03-08T23:08:48.051Z,9.40
2019-03-08T23:11:17.339Z,9.40
2019-03-08T23:13:46.637Z,9.40
2019-03-08T23:16:15.832Z,9.30
2019-03-08T23:18:45.211Z,9.30
2019-03-08T23:21:14.445Z,9.40
2019-03-08T23:23:43.750Z,9.40
2019-03-08T23:26:12.958Z,9.40
2019-03-08T23:28:46.110Z,9.50
2019-03-08T23:31:37.406Z,9.50
2019-03-08T23:34:06.654Z,9.40
2019-03-08T23:36:35.953Z,9.50
2019-03-08T23:39:08.646Z,9.50
2019-03-08T23:41:37.882Z,9.50
2019-03-08T23:44:07.147Z,9.50
2019-03-08T23:46:36.390Z,9.30
2019-03-08T23:49:05.555Z,9.10
2019-03-08T23:51:34.998Z,9.00
2019-03-08T23:54:04.226Z,9.00
2019-03-08T23:56:33.531Z,8.90
2019-03-08T23:59:02.824Z,8.90
